Time;durP1;ratioP1;P1;durP2;ratioP2;P2;SDS_P1;SDS_P2;PMS_P1;PMS_P2;Temp;Humidity;BMP_temperature;BMP_pressure;BME280_temperature;BME280_humidity;BME280_pressure;Samples;Min_cycle;Max_cycle;Signal;HPM_P1;HPM_P2
2022/08/08 00:00:59;;;;;;;1.33;1.23;;;;;;;18.57;50.76;99537.16;5069301;28;20085;-77
2022/08/08 00:03:51;;;;;;;1.40;1.30;;;;;;;18.45;50.57;99523.22;5065567;28;20052;-77
2022/08/08 00:06:22;;;;;;;1.58;1.48;;;;;;;18.51;50.76;99528.28;5061132;28;20075;-77
2022/08/08 00:08:52;;;;;;;1.45;1.35;;;;;;;18.46;50.78;99519.41;5076899;28;20079;-77
2022/08/08 00:11:26;;;;;;;4.15;1.40;;;;;;;18.48;50.68;99528.03;5060966;28;20943;-77
2022/08/08 00:13:59;;;;;;;1.92;1.70;;;;;;;18.45;50.76;99534.03;5063291;28;20502;-77
2022/08/08 00:16:46;;;;;;;1.98;1.40;;;;;;;18.44;51.42;99535.06;5066632;28;20379;-77
2022/08/08 00:19:20;;;;;;;1.65;1.15;;;;;;;18.39;51.44;99533.22;5065210;28;22436;-77
2022/08/08 00:21:51;;;;;;;3.03;1.50;;;;;;;18.36;51.14;99524.88;5066484;28;20369;-77
2022/08/08 00:24:27;;;;;;;1.67;1.27;;;;;;;18.16;51.65;99525.00;5046564;28;20033;-78
2022/08/08 00:26:59;;;;;;;2.40;1.23;;;;;;;17.91;51.90;99526.78;5058934;28;21023;-77
2022/08/08 00:29:31;;;;;;;4.45;1.67;;;;;;;17.99;52.42;99541.63;5062213;28;20032;-77
2022/08/08 00:32:03;;;;;;;3.40;1.60;;;;;;;18.02;51.81;99524.06;5060552;28;20468;-77
2022/08/08 00:38:01;;;;;;;2.38;1.40;;;;;;;18.10;51.64;99540.47;5062356;28;20076;-77
2022/08/08 00:40:27;;;;;;;1.80;1.52;;;;;;;18.06;52.11;99547.53;5065628;28;20111;-77
2022/08/08 00:43:23;;;;;;;1.85;1.13;;;;;;;18.03;51.74;99542.66;5071847;28;20114;-77
2022/08/08 00:46:21;;;;;;;2.20;1.45;;;;;;;17.77;52.33;99531.22;5062657;28;20392;-77
2022/08/08 00:49:08;;;;;;;2.08;1.30;;;;;;;17.89;52.39;99541.66;5080624;28;20056;-77
2022/08/08 00:52:00;;;;;;;3.42;1.63;;;;;;;17.61;53.86;99553.16;5066253;28;20047;-77
2022/08/08 00:54:40;;;;;;;1.83;1.50;;;;;;;17.75;52.59;99541.50;5066127;28;20047;-77
2022/08/08 00:57:43;;;;;;;2.05;1.55;;;;;;;17.90;52.26;99548.69;5061766;28;20549;-77
2022/08/08 01:00:12;;;;;;;2.08;1.85;;;;;;;17.75;52.46;99549.59;5075050;28;20060;-77
2022/08/08 01:03:09;;;;;;;1.85;1.38;;;;;;;17.78;52.64;99549.00;5082104;28;20027;-77
2022/08/08 01:05:53;;;;;;;;;;;;;;;17.84;52.34;99550.59;5081603;28;20032;-77
2022/08/08 01:08:40;;;;;;;3.15;1.98;;;;;;;17.81;52.49;99540.38;5062713;28;19927;-77
2022/08/08 01:11:30;;;;;;;1.60;1.50;;;;;;;17.37;55.20;99538.63;5062815;28;20424;-77
2022/08/08 01:14:26;;;;;;;1.75;1.65;;;;;;;16.51;57.16;99540.69;5066168;28;20028;-77
2022/08/08 01:16:55;;;;;;;2.13;1.92;;;;;;;15.91;59.87;99550.28;5062404;28;20410;-77
2022/08/08 01:19:38;;;;;;;4.25;2.00;;;;;;;15.86;59.99;99541.41;5081129;28;20366;-77
2022/08/08 01:22:42;;;;;;;1.85;1.58;;;;;;;16.48;56.11;99548.22;5080224;28;20036;-77
2022/08/08 01:25:25;;;;;;;1.88;1.60;;;;;;;16.76;54.92;99538.78;5061408;28;20044;-77
2022/08/08 01:28:21;;;;;;;1.75;1.50;;;;;;;17.31;53.57;99539.75;5081235;28;20036;-77
2022/08/08 01:31:14;;;;;;;2.17;1.88;;;;;;;16.90;56.09;99547.94;5077151;28;20127;-77
2022/08/08 01:34:10;;;;;;;2.33;1.60;;;;;;;16.93;54.46;99551.97;5064355;28;20366;-77
2022/08/08 01:37:08;;;;;;;2.85;1.85;;;;;;;16.76;55.33;99551.47;5059962;28;20032;-77
2022/08/08 01:40:00;;;;;;;2.05;1.73;;;;;;;16.84;54.85;99543.63;5063168;28;20064;-77
2022/08/08 01:42:54;;;;;;;2.53;1.50;;;;;;;17.18;53.92;99528.47;5062407;28;20044;-77
2022/08/08 01:45:49;;;;;;;2.78;2.58;;;;;;;17.13;54.05;99538.44;5064836;28;20044;-77
2022/08/08 01:48:15;;;;;;;2.92;1.58;;;;;;;16.74;55.42;99535.56;5060733;28;20032;-77
2022/08/08 01:51:02;;;;;;;6.15;1.95;;;;;;;16.32;57.13;99535.00;5065291;28;20036;-77
2022/08/08 01:53:44;;;;;;;2.28;1.60;;;;;;;16.42;55.80;99541.19;5064442;28;20032;-77
2022/08/08 01:56:54;;;;;;;1.50;1.40;;;;;;;16.55;56.52;99541.78;5057775;28;20033;-77
2022/08/08 01:59:45;;;;;;;2.70;2.05;;;;;;;15.47;61.10;99532.91;5069089;28;20045;-77
2022/08/08 02:02:35;;;;;;;2.90;2.00;;;;;;;15.12;62.27;99549.66;5060825;28;20537;-77
2022/08/08 02:05:22;;;;;;;3.47;1.70;;;;;;;15.47;59.32;99549.88;5066908;28;20033;-77
2022/08/08 02:08:20;;;;;;;2.00;1.80;;;;;;;16.01;58.20;99547.63;5077031;28;20540;-77
2022/08/08 02:11:06;;;;;;;3.85;1.88;;;;;;;15.13;62.23;99548.63;5061732;28;20040;-77
2022/08/08 02:13:32;;;;;;;;;;;;;;;14.79;63.11;99550.00;5062891;28;20480;-77
2022/08/08 02:16:25;;;;;;;2.50;2.30;;;;;;;14.73;62.69;99554.53;5062464;28;19919;-77
2022/08/08 02:19:13;;;;;;;2.53;2.03;;;;;;;16.23;56.93;99555.47;5062039;28;20111;-77
2022/08/08 02:25:08;;;;;;;2.22;2.03;;;;;;;16.87;55.21;99553.88;5061679;28;20068;-79
2022/08/08 02:27:46;;;;;;;2.20;1.92;;;;;;;16.89;54.67;99532.03;5051908;28;20101;-79
2022/08/08 02:30:37;;;;;;;3.20;2.00;;;;;;;16.97;54.53;99539.59;5062769;28;20559;-79
2022/08/08 02:33:39;;;;;;;1.83;1.73;;;;;;;16.60;55.66;99547.19;5079627;28;20032;-79
2022/08/08 02:36:38;;;;;;;3.40;2.67;;;;;;;15.97;58.79;99537.63;5059642;28;20037;-79
2022/08/08 02:39:03;;;;;;;1.92;1.80;;;;;;;15.89;57.46;99539.00;5059507;28;20024;-79
2022/08/08 02:41:35;;;;;;;1.80;1.70;;;;;;;16.35;56.18;99529.09;5061172;28;20486;-79
2022/08/08 02:44:29;;;;;;;1.98;1.83;;;;;;;16.48;55.87;99540.13;5063263;28;20025;-78
2022/08/08 02:47:06;;;;;;;1.70;1.60;;;;;;;16.64;55.57;99549.06;5060335;28;20048;-78
2022/08/08 02:49:37;;;;;;;1.90;1.80;;;;;;;16.78;55.10;99544.72;5064180;28;20024;-78
2022/08/08 02:52:33;;;;;;;2.25;2.03;;;;;;;16.79;54.56;99545.53;5060163;28;20483;-78
2022/08/08 02:55:06;;;;;;;2.37;1.73;;;;;;;16.80;55.22;99549.84;5076746;28;20020;-79
2022/08/08 02:58:06;;;;;;;2.08;1.83;;;;;;;16.64;55.31;99549.06;5065640;28;20312;-78
2022/08/08 03:01:13;;;;;;;2.28;2.08;;;;;;;16.37;55.51;99546.59;5065701;28;20032;-78
2022/08/08 03:04:13;;;;;;;2.63;1.95;;;;;;;16.63;55.75;99554.69;5084845;28;20031;-78
2022/08/08 03:06:41;;;;;;;2.78;2.08;;;;;;;16.32;56.98;99556.53;5062847;28;20039;-78
2022/08/08 03:09:44;;;;;;;2.03;1.83;;;;;;;16.47;55.61;99565.44;5066168;28;20029;-78
2022/08/08 03:12:48;;;;;;;5.40;2.35;;;;;;;16.30;55.23;99539.84;5064382;28;20029;-78
2022/08/08 03:15:34;;;;;;;2.28;1.73;;;;;;;16.45;55.19;99564.09;5064356;28;20053;-78
2022/08/08 03:18:07;;;;;;;2.40;1.77;;;;;;;16.41;55.82;99563.03;5064797;28;20032;-78
2022/08/08 03:20:43;;;;;;;4.65;2.30;;;;;;;16.06;56.92;99561.09;5042660;28;20284;-78
2022/08/08 03:23:08;;;;;;;;;;;;;;;15.92;56.72;99557.31;5063343;28;20025;-78
2022/08/08 03:25:35;;;;;;;2.63;2.40;;;;;;;15.63;58.54;99566.91;5044160;28;19936;-78
2022/08/08 03:28:05;;;;;;;2.92;2.05;;;;;;;15.60;57.03;99556.66;5065354;28;20021;-78
2022/08/08 03:30:31;;;;;;;1.52;1.42;;;;;;;16.00;56.58;99547.88;5063031;28;20051;-78
2022/08/08 03:35:41;;;;;;;2.00;1.90;;;;;;;16.29;55.30;99563.28;5064517;28;20089;-78
2022/08/08 03:38:07;;;;;;;2.92;2.42;;;;;;;15.28;60.31;99572.09;5065303;28;20032;-79
2022/08/08 03:40:34;;;;;;;2.15;1.95;;;;;;;15.38;58.94;99580.19;5064124;28;20036;-78
2022/08/08 03:43:00;;;;;;;4.22;2.47;;;;;;;15.12;60.84;99578.44;5058934;28;20060;-78
2022/08/08 03:45:27;;;;;;;3.03;2.05;;;;;;;15.46;58.48;99572.50;5064467;28;20154;-79
2022/08/08 03:48:04;;;;;;;3.88;2.20;;;;;;;15.87;56.79;99570.75;5070072;28;20068;-78
2022/08/08 03:50:31;;;;;;;3.40;2.08;;;;;;;15.59;57.27;99558.56;5069958;28;20068;-78
2022/08/08 03:53:12;;;;;;;2.45;2.22;;;;;;;15.83;56.80;99560.78;5067494;28;20039;-79
2022/08/08 03:55:44;;;;;;;2.15;1.98;;;;;;;15.94;56.98;99567.81;5064973;28;20016;-79
2022/08/08 03:58:17;;;;;;;2.05;1.85;;;;;;;15.94;56.60;99560.53;5065845;28;20476;-79
2022/08/08 04:00:51;;;;;;;2.58;2.25;;;;;;;15.88;57.00;99575.03;5063758;28;20028;-79
2022/08/08 04:03:17;;;;;;;2.80;1.77;;;;;;;16.12;56.62;99586.97;5077536;28;20510;-78
2022/08/08 04:05:43;;;;;;;3.00;1.83;;;;;;;16.16;56.29;99592.63;5068178;28;20099;-79
2022/08/08 04:08:19;;;;;;;2.22;2.08;;;;;;;15.83;56.59;99580.44;5065122;28;20024;-79
2022/08/08 04:10:47;;;;;;;2.53;1.77;;;;;;;15.97;56.58;99595.00;5067565;28;20031;-79
2022/08/08 04:13:13;;;;;;;3.20;2.10;;;;;;;15.78;57.60;99591.19;5064081;28;20031;-78
2022/08/08 04:15:38;;;;;;;2.10;1.90;;;;;;;15.29;58.33;99582.56;5063982;28;20107;-79
2022/08/08 04:18:04;;;;;;;2.70;2.17;;;;;;;15.40;59.27;99591.50;5064487;28;20032;-78
2022/08/08 04:20:29;;;;;;;3.92;2.47;;;;;;;15.31;59.09;99601.94;5062157;28;20024;-79
2022/08/08 04:22:55;;;;;;;3.55;2.42;;;;;;;15.18;59.63;99583.56;5065663;28;20033;-78
2022/08/08 04:25:21;;;;;;;2.75;2.55;;;;;;;14.80;62.86;99608.88;5062398;28;20032;-78
2022/08/08 04:27:46;;;;;;;3.25;2.95;;;;;;;14.49;64.94;99600.81;5063384;28;20024;-78
2022/08/08 04:30:12;;;;;;;2.58;2.33;;;;;;;14.34;65.74;99606.84;5063598;28;20028;-78
2022/08/08 04:32:37;;;;;;;4.38;2.20;;;;;;;14.45;63.66;99615.81;5080186;28;20097;-78
2022/08/08 04:35:03;;;;;;;2.60;2.40;;;;;;;14.34;65.96;99606.84;5064938;28;20399;-78
2022/08/08 04:37:29;;;;;;;3.75;2.65;;;;;;;14.34;66.35;99616.78;5077186;28;20078;-78
2022/08/08 04:39:55;;;;;;;2.70;2.50;;;;;;;14.43;64.89;99609.88;5069638;28;20028;-78
2022/08/08 04:42:21;;;;;;;8.45;2.75;;;;;;;14.36;67.43;99612.78;5064346;28;20063;-78
2022/08/08 04:44:47;;;;;;;3.72;2.58;;;;;;;14.34;67.27;99608.72;5050321;28;20083;-79
2022/08/08 04:47:13;;;;;;;3.53;2.60;;;;;;;14.38;67.49;99624.09;5043784;28;20040;-78
2022/08/08 04:49:38;;;;;;;3.50;2.88;;;;;;;14.42;68.56;99621.69;5080638;28;20029;-78
2022/08/08 04:52:04;;;;;;;3.25;2.95;;;;;;;14.26;68.19;99588.50;5064206;28;20037;-78
2022/08/08 04:54:29;;;;;;;3.13;2.35;;;;;;;14.50;68.64;99608.63;5078878;28;20376;-79
2022/08/08 04:56:55;;;;;;;3.67;2.90;;;;;;;14.48;68.33;99612.63;5076286;28;20131;-78
2022/08/08 04:59:20;;;;;;;3.60;3.15;;;;;;;14.43;69.03;99624.13;5083288;28;20079;-78
2022/08/08 05:01:46;;;;;;;3.53;3.22;;;;;;;14.12;69.53;99606.88;5064677;28;20067;-77
2022/08/08 05:04:11;;;;;;;4.57;2.97;;;;;;;14.32;69.01;99633.16;5065890;28;20091;-78
2022/08/08 05:06:37;;;;;;;3.15;2.80;;;;;;;14.14;68.69;99623.53;5069548;28;20116;-78
2022/08/08 05:09:03;;;;;;;4.35;3.00;;;;;;;14.28;69.24;99623.97;5062933;28;20041;-78
2022/08/08 05:11:29;;;;;;;6.85;3.40;;;;;;;14.28;69.08;99627.44;5064816;28;20020;-78
2022/08/08 05:13:55;;;;;;;6.28;3.15;;;;;;;14.03;69.58;99634.41;5062033;28;20032;-78
2022/08/08 05:16:21;;;;;;;5.20;3.22;;;;;;;14.15;70.18;99635.09;5065903;28;20394;-78
2022/08/08 05:18:47;;;;;;;5.85;3.33;;;;;;;13.95;69.46;99634.88;5062858;28;20024;-77
2022/08/08 05:21:12;;;;;;;3.97;3.00;;;;;;;14.04;68.53;99631.47;5065810;28;20078;-78
2022/08/08 05:23:38;;;;;;;4.15;3.65;;;;;;;14.24;68.39;99620.16;5061610;28;20029;-78
2022/08/08 05:26:03;;;;;;;7.55;3.22;;;;;;;14.05;70.22;99605.44;5064150;28;20048;-78
2022/08/08 05:28:29;;;;;;;6.35;3.58;;;;;;;14.20;69.39;99624.38;5067372;28;20473;-78
2022/08/08 05:30:55;;;;;;;5.57;3.20;;;;;;;14.17;69.81;99624.91;5063590;28;20024;-78
2022/08/08 05:33:21;;;;;;;3.97;3.13;;;;;;;14.50;69.60;99648.94;5061722;28;20038;-78
2022/08/08 05:35:47;;;;;;;5.82;3.60;;;;;;;14.35;69.13;99634.53;5066881;28;20033;-78
2022/08/08 05:38:14;;;;;;;8.85;4.18;;;;;;;14.37;69.23;99633.22;5059770;28;20040;-77
2022/08/08 05:40:45;;;;;;;7.80;4.25;;;;;;;14.11;70.65;99639.31;5047769;28;20025;-77
2022/08/08 05:43:20;;;;;;;8.48;4.03;;;;;;;14.22;70.10;99633.00;5067557;28;20095;-76
2022/08/08 05:45:46;;;;;;;4.50;3.58;;;;;;;14.41;70.56;99652.31;5058261;28;20769;-76
2022/08/08 05:48:12;;;;;;;8.80;4.18;;;;;;;14.37;70.81;99638.59;5061149;28;20028;-76
2022/08/08 05:50:38;;;;;;;6.38;4.15;;;;;;;14.37;70.63;99632.41;5066773;28;20411;-76
2022/08/08 05:53:04;;;;;;;7.15;4.55;;;;;;;14.42;69.52;99635.94;5062894;28;20032;-77
2022/08/08 05:55:33;;;;;;;4.40;3.42;;;;;;;14.74;66.72;99644.81;5063038;28;20037;-76
2022/08/08 05:57:58;;;;;;;8.20;3.67;;;;;;;14.65;68.91;99651.75;5062797;28;20024;-77
2022/08/08 06:00:31;;;;;;;6.15;4.30;;;;;;;14.72;67.81;99643.47;5047236;28;20437;-76
2022/08/08 06:03:11;;;;;;;7.88;3.70;;;;;;;14.72;69.88;99640.78;5061456;28;20087;-76
2022/08/08 06:05:50;;;;;;;8.70;3.80;;;;;;;14.67;70.63;99660.38;5065554;28;20032;-76
2022/08/08 06:08:23;;;;;;;13.15;4.07;;;;;;;14.54;68.73;99654.59;5062205;28;20028;-77
2022/08/08 06:10:48;;;;;;;3.40;2.75;;;;;;;15.34;64.54;99649.03;5061004;28;20074;-76
2022/08/08 06:13:15;;;;;;;9.15;3.88;;;;;;;15.66;66.79;99665.97;5042900;28;20029;-77
2022/08/08 06:15:42;;;;;;;6.60;2.63;;;;;;;15.86;63.28;99659.88;5053653;28;20516;-77
2022/08/08 06:18:08;;;;;;;7.53;4.07;;;;;;;15.46;65.09;99657.78;5036856;28;20120;-77
2022/08/08 06:20:34;;;;;;;3.25;2.90;;;;;;;16.10;63.04;99663.69;5056708;28;20028;-77
2022/08/08 06:23:00;;;;;;;10.25;3.72;;;;;;;15.43;65.19;99660.94;5038282;28;20559;-77
2022/08/08 06:25:26;;;;;;;7.35;4.15;;;;;;;15.57;66.83;99671.00;5059607;28;20146;-77
2022/08/08 06:27:59;;;;;;;6.20;4.00;;;;;;;16.09;64.11;99659.41;5058938;28;20081;-77
2022/08/08 06:30:25;;;;;;;6.38;3.63;;;;;;;15.96;64.38;99673.38;5047317;28;20043;-77
2022/08/08 06:32:53;;;;;;;3.30;2.92;;;;;;;15.97;64.14;99662.31;5066549;28;20480;-77
2022/08/08 06:35:20;;;;;;;4.70;3.85;;;;;;;15.67;67.35;99660.31;5048916;28;20382;-77
2022/08/08 06:37:51;;;;;;;8.05;3.88;;;;;;;15.40;66.86;99664.94;5045309;28;20052;-77
2022/08/08 06:40:18;;;;;;;5.65;3.63;;;;;;;15.36;67.77;99671.09;5056729;28;20032;-76
2022/08/08 06:42:52;;;;;;;6.18;3.50;;;;;;;15.11;67.64;99673.63;5062661;28;20503;-76
2022/08/08 06:45:20;;;;;;;5.53;3.83;;;;;;;15.33;67.42;99677.03;5058609;28;20037;-76
2022/08/08 06:47:45;;;;;;;4.55;2.55;;;;;;;16.08;63.47;99680.13;5061179;28;20031;-76
2022/08/08 06:50:11;;;;;;;6.35;3.67;;;;;;;16.32;64.35;99675.09;5060146;28;20127;-77
2022/08/08 06:52:37;;;;;;;4.50;2.20;;;;;;;17.37;59.14;99677.09;5076363;28;20060;-77
2022/08/08 06:55:05;;;;;;;3.70;2.35;;;;;;;17.12;60.46;99674.44;5062173;28;20028;-77
2022/08/08 06:57:31;;;;;;;4.43;2.88;;;;;;;17.17;60.55;99663.59;5054860;28;20037;-77
2022/08/08 06:59:56;;;;;;;5.32;3.15;;;;;;;17.17;61.10;99644.72;5038068;28;20039;-77
2022/08/08 07:02:25;;;;;;;4.20;3.22;;;;;;;16.43;62.00;99658.69;5056914;28;20036;-77
2022/08/08 07:04:56;;;;;;;7.47;3.13;;;;;;;16.49;63.11;99641.44;5058676;28;20032;-77
2022/08/08 07:07:45;;;;;;;7.70;2.40;;;;;;;17.06;61.34;99681.69;5039836;28;20039;-77
2022/08/08 07:10:11;;;;;;;3.40;2.67;;;;;;;16.52;62.58;99685.97;5056738;28;20082;-77
2022/08/08 07:12:46;;;;;;;7.90;3.47;;;;;;;16.11;63.97;99693.09;5059521;28;20032;-77
2022/08/08 07:15:13;;;;;;;6.97;3.50;;;;;;;16.86;61.78;99678.19;5037070;28;20029;-77
2022/08/08 07:17:46;;;;;;;7.75;3.55;;;;;;;16.82;61.62;99688.69;5059391;28;20409;-77
2022/08/08 07:20:18;;;;;;;5.15;3.42;;;;;;;16.67;62.34;99674.38;5039341;28;20595;-77
2022/08/08 07:23:07;;;;;;;5.38;2.70;;;;;;;16.92;63.25;99660.94;5057684;28;20050;-77
2022/08/08 07:25:38;;;;;;;3.45;2.28;;;;;;;17.08;62.03;99695.72;5057353;28;20389;-77
2022/08/08 07:28:14;;;;;;;4.85;3.05;;;;;;;17.02;62.03;99686.03;5036175;28;20039;-77
2022/08/08 07:30:42;;;;;;;4.60;3.40;;;;;;;16.51;63.26;99689.75;5058180;28;20028;-77
2022/08/08 07:33:10;;;;;;;5.70;2.92;;;;;;;16.55;63.29;99671.97;5058638;28;20062;-77
2022/08/08 07:35:37;;;;;;;9.10;3.33;;;;;;;16.89;64.48;99685.72;5060875;28;20541;-77
2022/08/08 07:38:03;;;;;;;7.75;4.30;;;;;;;17.07;63.20;99693.31;5053724;28;20051;-77
2022/08/08 07:40:30;;;;;;;13.88;3.75;;;;;;;17.01;61.73;99659.31;5026438;28;20074;-77
2022/08/08 07:42:56;;;;;;;8.35;3.60;;;;;;;17.28;62.21;99692.22;5057988;28;20024;-77
2022/08/08 07:45:23;;;;;;;6.05;3.53;;;;;;;17.42;62.22;99687.88;5057689;28;20516;-77
2022/08/08 07:47:49;;;;;;;8.93;3.15;;;;;;;17.74;60.92;99699.19;5059479;28;20347;-77
2022/08/08 07:50:15;;;;;;;5.60;3.28;;;;;;;17.80;60.28;99706.19;5055775;28;20024;-78
2022/08/08 07:52:49;;;;;;;3.40;2.65;;;;;;;17.59;60.46;99701.91;5056690;28;20428;-77
2022/08/08 07:55:27;;;;;;;11.77;3.85;;;;;;;17.74;60.23;99682.16;5056325;28;20044;-77
2022/08/08 07:58:10;;;;;;;8.18;3.38;;;;;;;17.79;58.65;99682.97;5056474;28;20036;-77
2022/08/08 08:00:43;;;;;;;4.38;2.63;;;;;;;17.98;58.92;99689.38;5055968;28;20016;-78
2022/08/08 08:03:17;;;;;;;2.75;2.35;;;;;;;17.88;57.23;99704.81;5071071;28;20025;-78
2022/08/08 08:05:48;;;;;;;4.68;2.80;;;;;;;18.23;58.49;99703.88;5057347;28;20562;-77
2022/08/08 08:08:19;;;;;;;5.35;2.58;;;;;;;18.17;57.94;99696.88;5058252;28;20733;-78
2022/08/08 08:10:50;;;;;;;4.28;2.53;;;;;;;18.41;57.70;99695.16;5073527;28;20035;-78
2022/08/08 08:13:38;;;;;;;6.78;2.80;;;;;;;18.41;58.40;99695.16;5073523;28;20044;-77
2022/08/08 08:16:06;;;;;;;5.97;2.65;;;;;;;18.52;57.29;99700.22;5041179;28;20032;-78
2022/08/08 08:18:56;;;;;;;10.02;3.05;;;;;;;18.61;57.74;99697.75;5073073;28;20025;-78
2022/08/08 08:21:23;;;;;;;2.60;2.33;;;;;;;19.21;57.45;99666.72;5057009;28;20020;-78
2022/08/08 08:23:49;;;;;;;5.20;2.70;;;;;;;18.96;57.21;99702.13;5054986;28;20041;-77
2022/08/08 08:26:16;;;;;;;5.65;2.50;;;;;;;19.13;56.68;99697.91;5052929;28;20036;-77
2022/08/08 08:28:42;;;;;;;3.13;2.38;;;;;;;19.02;56.87;99685.56;5053818;28;20025;-78
2022/08/08 08:31:08;;;;;;;4.70;2.45;;;;;;;19.16;55.96;99702.75;5057215;28;20397;-78
2022/08/08 08:33:33;;;;;;;4.50;2.33;;;;;;;19.31;53.19;99697.22;5053274;28;20914;-77
2022/08/08 08:36:00;;;;;;;3.45;2.05;;;;;;;19.54;55.30;99705.69;5057719;28;20063;-78
2022/08/08 08:38:26;;;;;;;3.90;2.28;;;;;;;20.34;53.69;99693.97;5057056;28;20025;-78
2022/08/08 08:40:52;;;;;;;5.70;2.33;;;;;;;20.84;51.97;99703.28;5052305;28;20035;-78
2022/08/08 08:43:18;;;;;;;4.90;2.30;;;;;;;20.51;53.19;99699.69;5060364;28;20029;-77
2022/08/08 08:45:46;;;;;;;4.45;2.58;;;;;;;19.98;54.30;99696.28;5061680;28;20121;-78
2022/08/08 08:48:13;;;;;;;2.17;1.92;;;;;;;19.53;52.42;99690.56;5062575;28;20028;-77
2022/08/08 08:50:43;;;;;;;3.45;2.42;;;;;;;19.78;54.25;99688.38;5064392;28;20024;-78
2022/08/08 08:53:10;;;;;;;3.08;2.25;;;;;;;20.39;53.04;99682.22;5044672;28;20039;-78
2022/08/08 08:55:37;;;;;;;7.45;2.55;;;;;;;20.05;53.53;99666.91;5059924;28;20106;-77
2022/08/08 08:58:24;;;;;;;3.97;2.67;;;;;;;20.55;52.77;99692.56;5073441;28;20036;-78
2022/08/08 09:00:50;;;;;;;3.92;2.15;;;;;;;21.15;51.46;99696.31;5074541;28;20033;-78
2022/08/08 09:03:17;;;;;;;3.13;1.95;;;;;;;21.27;51.11;99687.69;5061138;28;20043;-78
2022/08/08 09:05:46;;;;;;;3.20;2.20;;;;;;;21.53;50.40;99669.84;5081909;28;20340;-77
2022/08/08 09:08:14;;;;;;;4.35;2.00;;;;;;;21.18;51.23;99678.63;5061425;28;20036;-78
2022/08/08 09:10:42;;;;;;;4.18;2.63;;;;;;;20.85;51.87;99675.88;5063482;28;20048;-77
2022/08/08 09:13:08;;;;;;;5.60;2.22;;;;;;;20.61;50.74;99693.31;5059232;28;20051;-77
2022/08/08 09:15:34;;;;;;;2.67;2.13;;;;;;;20.49;52.17;99672.03;5065786;28;20213;-77
2022/08/08 09:18:00;;;;;;;2.10;1.85;;;;;;;20.73;51.38;99671.97;5058356;28;20110;-77
2022/08/08 09:20:26;;;;;;;6.45;2.20;;;;;;;21.01;51.43;99681.03;5065371;28;20028;-77
2022/08/08 09:22:53;;;;;;;4.00;2.15;;;;;;;21.63;49.57;99666.94;5062659;28;20036;-78
2022/08/08 09:25:19;;;;;;;2.60;2.10;;;;;;;21.92;49.20;99681.06;5044337;28;20047;-78
2022/08/08 09:27:45;;;;;;;2.28;1.80;;;;;;;21.22;47.75;99680.44;5062050;28;20115;-78
2022/08/08 09:30:13;;;;;;;2.65;1.67;;;;;;;21.74;49.29;99681.94;5060417;28;20119;-78
2022/08/08 09:33:02;;;;;;;6.82;1.60;;;;;;;21.67;46.88;99675.28;5062338;28;20064;-79
2022/08/08 09:35:30;;;;;;;1.40;1.30;;;;;;;21.79;45.43;99667.44;5063824;28;20494;-78
2022/08/08 09:38:04;;;;;;;2.22;1.60;;;;;;;21.96;48.02;99665.75;5041119;28;20085;-78
2022/08/08 09:40:33;;;;;;;2.25;1.88;;;;;;;21.88;46.75;99666.47;5046207;28;20041;-78
2022/08/08 09:43:29;;;;;;;1.83;1.52;;;;;;;21.58;44.47;99664.28;5067236;28;20078;-78
2022/08/08 09:46:02;;;;;;;3.03;1.30;;;;;;;21.64;45.51;99671.25;5068294;28;20036;-78
2022/08/08 09:48:39;;;;;;;2.15;1.50;;;;;;;22.21;46.52;99659.78;5062720;28;20017;-78
2022/08/08 09:51:07;;;;;;;3.03;1.38;;;;;;;22.49;47.38;99671.44;5051994;28;20273;-78
2022/08/08 09:53:35;;;;;;;2.03;0.80;;;;;;;22.11;44.42;99665.44;5074843;28;20494;-77
2022/08/08 09:56:08;;;;;;;2.20;1.88;;;;;;;21.90;43.96;99656.09;5059577;28;20093;-78
2022/08/08 09:58:39;;;;;;;2.08;1.10;;;;;;;22.31;42.91;99664.22;5071233;28;20082;-78
2022/08/08 10:01:09;;;;;;;1.00;0.90;;;;;;;22.25;41.53;99668.97;5072162;28;20033;-79
2022/08/08 10:03:42;;;;;;;4.65;1.27;;;;;;;22.52;43.61;99661.84;5076794;28;20035;-78
2022/08/08 10:06:15;;;;;;;5.68;1.70;;;;;;;22.26;43.65;99662.41;5070222;28;20418;-79
2022/08/08 10:08:49;;;;;;;2.00;1.50;;;;;;;22.44;44.85;99657.13;5080306;28;20140;-78
2022/08/08 10:11:19;;;;;;;3.65;1.90;;;;;;;23.13;43.58;99662.00;5067719;28;20060;-78
2022/08/08 10:13:58;;;;;;;2.70;1.20;;;;;;;23.56;43.57;99651.41;5062365;28;20078;-79
2022/08/08 10:16:35;;;;;;;1.40;1.30;;;;;;;22.78;44.09;99652.00;5064370;28;20028;-78
2022/08/08 10:19:10;;;;;;;2.67;1.30;;;;;;;22.87;43.51;99656.41;5064570;28;20510;-78
2022/08/08 10:21:36;;;;;;;1.67;1.52;;;;;;;22.96;43.38;99659.97;5062464;28;20473;-79
2022/08/08 10:24:07;;;;;;;4.63;1.50;;;;;;;23.87;43.58;99649.44;5066340;28;20050;-79
2022/08/08 10:26:41;;;;;;;2.10;1.30;;;;;;;24.36;42.58;99645.53;5068542;28;20047;-79
2022/08/08 10:29:11;;;;;;;2.90;1.25;;;;;;;24.26;42.76;99651.31;5067606;28;20029;-79
2022/08/08 10:34:23;;;;;;;2.75;1.40;;;;;;;24.55;41.76;99637.88;5065647;28;20090;-78
2022/08/08 10:36:50;;;;;;;2.75;1.33;;;;;;;24.77;41.54;99647.84;5064433;28;20017;-79
2022/08/08 10:39:28;;;;;;;1.98;1.23;;;;;;;24.89;41.65;99645.25;5063911;28;20024;-79
2022/08/08 10:42:01;;;;;;;2.15;1.95;;;;;;;24.84;41.44;99643.50;5076346;28;20027;-79
2022/08/08 10:44:39;;;;;;;2.13;1.50;;;;;;;25.22;41.10;99640.88;5068962;28;20063;-79
2022/08/08 10:47:16;;;;;;;1.40;1.30;;;;;;;25.04;42.05;99612.78;5065564;28;20036;-79
2022/08/08 10:49:50;;;;;;;1.95;1.23;;;;;;;24.87;41.60;99615.56;5063900;28;20040;-79
2022/08/08 10:52:26;;;;;;;1.90;1.40;;;;;;;25.23;40.47;99628.78;5082133;28;20159;-78
2022/08/08 10:54:52;;;;;;;;;;;;;;;24.81;40.62;99627.78;5065881;28;20028;-79
2022/08/08 10:57:18;;;;;;;3.20;1.70;;;;;;;24.61;41.26;99627.59;5065466;28;19943;-79
2022/08/08 10:59:50;;;;;;;3.42;1.65;;;;;;;24.68;40.30;99625.19;5071415;28;20496;-79
2022/08/08 11:02:25;;;;;;;1.33;1.23;;;;;;;24.44;40.45;99633.84;5082570;28;20033;-79
2022/08/08 11:04:51;;;;;;;2.28;1.50;;;;;;;24.74;41.77;99630.16;5080613;28;20074;-79
2022/08/08 11:07:40;;;;;;;2.28;1.75;;;;;;;24.66;40.68;99636.41;5064926;28;20036;-79
2022/08/08 11:10:10;;;;;;;3.67;1.33;;;;;;;25.86;40.00;99627.97;5064499;28;20031;-79
2022/08/08 11:12:53;;;;;;;3.28;1.50;;;;;;;26.05;39.77;99617.38;5063158;28;20081;-79
2022/08/08 11:15:22;;;;;;;2.13;1.50;;;;;;;26.51;39.64;99630.13;5062421;28;20029;-79
2022/08/08 11:17:49;;;;;;;3.35;1.52;;;;;;;26.16;39.22;99606.88;5049061;28;20037;-79
2022/08/08 11:20:17;;;;;;;1.33;1.13;;;;;;;26.85;38.97;99618.88;5050268;28;20040;-79
2022/08/08 11:22:49;;;;;;;2.08;1.58;;;;;;;26.65;39.07;99608.72;5063532;28;20029;-79
2022/08/08 11:25:15;;;;;;;1.98;1.30;;;;;;;27.01;39.18;99599.88;5059620;28;20029;-79
2022/08/08 11:27:45;;;;;;;1.55;1.05;;;;;;;27.34;38.19;99625.31;5044789;28;20437;-79
2022/08/08 11:30:11;;;;;;;1.98;1.40;;;;;;;26.89;37.54;99616.28;5067899;28;20036;-79
2022/08/08 11:32:41;;;;;;;1.90;1.60;;;;;;;26.96;37.20;99624.75;5030250;28;20038;-79
2022/08/08 11:35:12;;;;;;;1.45;1.33;;;;;;;27.36;36.72;99623.06;5062311;28;20114;-79
2022/08/08 11:37:40;;;;;;;4.53;1.23;;;;;;;26.71;36.87;99624.63;5044334;28;20348;-79
2022/08/08 11:40:09;;;;;;;2.47;1.27;;;;;;;26.06;38.08;99618.19;5065356;28;20051;-79
2022/08/08 11:42:35;;;;;;;2.95;1.30;;;;;;;26.40;39.30;99607.81;5065758;28;20611;-79
2022/08/08 11:45:02;;;;;;;2.03;1.40;;;;;;;27.68;36.96;99613.16;5069722;28;20551;-79
2022/08/08 11:47:28;;;;;;;2.05;1.17;;;;;;;27.83;35.62;99607.78;5070006;28;20116;-80
2022/08/08 11:49:57;;;;;;;4.40;1.83;;;;;;;26.92;36.70;99616.41;5048501;28;20608;-80
2022/08/08 11:52:25;;;;;;;1.27;1.15;;;;;;;27.19;38.26;99596.63;5065955;28;20040;-79
2022/08/08 11:54:51;;;;;;;1.45;1.20;;;;;;;25.73;37.04;99599.69;5064067;28;20381;-79
2022/08/08 11:57:16;;;;;;;1.23;1.15;;;;;;;27.27;37.28;99614.09;5065808;28;20028;-79
2022/08/08 11:59:44;;;;;;;1.05;1.00;;;;;;;28.33;37.55;99612.09;5077505;28;20489;-79
2022/08/08 12:02:10;;;;;;;1.60;1.38;;;;;;;28.59;37.24;99598.78;5067193;28;20029;-80
2022/08/08 12:04:37;;;;;;;1.95;1.23;;;;;;;28.90;36.72;99618.09;5070117;28;20033;-80
2022/08/08 12:07:06;;;;;;;2.17;1.13;;;;;;;28.84;34.67;99611.25;5067961;28;20052;-80
2022/08/08 12:09:31;;;;;;;1.92;1.00;;;;;;;27.57;35.69;99598.28;5074918;28;20020;-79
2022/08/08 12:11:57;;;;;;;1.52;1.13;;;;;;;26.74;36.16;99593.03;5067752;28;20079;-79
2022/08/08 12:14:24;;;;;;;3.70;1.25;;;;;;;26.65;36.17;99595.03;5050699;28;20416;-79